May 23, 2022

Time Code Weather Temp. Visibility Clouds Wind METAR/SPECI
8:30 pm
V
61 °F 6¼ mi+ - 240°   240° 12 kt METAR LFBG 231830Z AUTO 24012KT 9999 -RA ///TCU 16/12 Q1010 BECMG 26015G25KT BKN035
8:00 pm
V
64 °F 6¼ mi+ 3,700 ft 260°   260° 17 kt METAR LFBG 231800Z AUTO 26017KT 9999 SCT025/// BKN037/// BKN046/// //////TCU 18/11 Q1009 BECMG 26015G25KT
7:30 pm
V
64 °F 6¼ mi+ 7,800 ft 250°   250° 17 kt METAR LFBG 231730Z AUTO 25017KT 9999 FEW027/// SCT044/// BKN078/// ///TCU 18/12 Q1009 BECMG 26015G25KT
7:00 pm
V
68 °F 6¼ mi+ 7,000 ft 250°   250° 14 kt METAR LFBG 231700Z AUTO 25014KT 210V270 9999 FEW028 SCT050 BKN070 20/13 Q1009 TEMPO SCT030TCU BECMG 26015G25KT
6:30 pm
V
68 °F 6¼ mi+ 3,100 ft 250°   250° 18 kt METAR LFBG 231630Z AUTO 25018KT 9999 BKN031 BKN048 BKN072 20/12 Q1009 TEMPO SCT030TCU BECMG 26015G25KT
6:00 pm
M
68 °F 6¼ mi+ 2,700 ft 240°   240° 16 kt METAR LFBG 231600Z AUTO 24016KT 210V270 9999 BKN027/// BKN037/// BKN044/// ///TCU 20/12 Q1009 BECMG 26015G25KT
5:30 pm
V
68 °F 6¼ mi+ 3,200 ft 250°   250° 16 kt METAR LFBG 231530Z AUTO 25016KT 9999 BKN032 BKN042 BKN058 20/12 Q1009 TEMPO SCT030TCU BECMG 26015G25KT
5:00 pm
V
70 °F 6¼ mi+ 3,100 ft 250°   250° 15 kt METAR LFBG 231500Z AUTO 25015KT 9999 BKN031 BKN039 BKN056 21/12 Q1009 TEMPO SCT030TCU BECMG 26015G25KT
4:30 pm
V
70 °F 6¼ mi+ 3,600 ft 260°   260° 16 kt METAR LFBG 231430Z AUTO 26016KT 9999 BKN036 BKN054 BKN066 21/12 Q1009 TEMPO 4000 SHRA SCT018TCU
4:00 pm
V
70 °F 6¼ mi+ 5,400 ft 260°   260° 16 kt METAR LFBG 231400Z AUTO 26016KT 9999 SCT035 SCT042 BKN054 21/12 Q1009 TEMPO 4000 SHRA SCT018TCU
3:30 pm
V
70 °F 6¼ mi+ 4,700 ft 260°   260° 16 kt METAR LFBG 231330Z AUTO 26016KT 9999 SCT035/// BKN047/// BKN054/// //////TCU 21/11 Q1009 TEMPO 4000 SHRA
3:00 pm
V
70 °F 6¼ mi+ - 240°   240° 18 kt METAR LFBG 231300Z AUTO 24018KT 9999 FEW031 SCT054 21/12 Q1009 TEMPO 4000 SHRA SCT018TCU
2:30 pm
V
70 °F 6¼ mi+ 5,000 ft 250°   250° 17 kt METAR LFBG 231230Z AUTO 25017KT 9999 SCT030 SCT043 BKN050 21/12 Q1009 TEMPO 4000 SHRA SCT018TCU
2:00 pm
M
68 °F 6¼ mi+ 2,700 ft 250°   250° 14 kt METAR LFBG 231200Z AUTO 25014KT 9999 FEW022 BKN027 BKN032 20/13 Q1009 TEMPO 4000 SHRA SCT018TCU
1:30 pm
V
68 °F 6¼ mi+ 3,500 ft 250°   250° 13 kt METAR LFBG 231130Z AUTO 25013KT 9999 FEW022 SCT030 BKN035 20/14 Q1009 TEMPO 4000 SHRA SCT018TCU
1:00 pm
V
66 °F 6¼ mi+ 3,200 ft 260°   260° 15 kt METAR LFBG 231100Z AUTO 26015KT 230V290 9999 SCT027 BKN032 BKN041 19/12 Q1009 NOSIG
12:30 pm
V
66 °F 6¼ mi+ 3,200 ft 270°   270° 13 kt METAR LFBG 231030Z AUTO 27013KT 9999 FEW026 BKN032 BKN039 19/14 Q1009 NOSIG
12:00 pm
M
64 °F 6¼ mi+ 1,800 ft 250°   250° 15 kt METAR LFBG 231000Z AUTO 25015KT 9999 BKN018 BKN023 OVC030 18/14 Q1009 NOSIG
11:30 am
M
64 °F 6¼ mi+ 2,100 ft 240°   240° 16 kt METAR LFBG 230930Z AUTO 24016KT 9999 FEW014 BKN021 BKN029 18/14 Q1008 NOSIG
11:00 am
V
61 °F 6¼ mi+ 5,800 ft 230°   230° 12 kt METAR LFBG 230900Z AUTO 23012KT 9999 FEW015/// SCT021/// OVC058/// ///TCU 16/15 Q1008 BECMG BKN015 BKN025 BKN050
10:30 am
M
61 °F 6¼ mi+ 2,200 ft 240°   240° 16 kt METAR LFBG 230830Z AUTO 24016KT 9999 -RA SCT015/// BKN022/// BKN052/// //////TCU 16/14 Q1008 TEMPO 4000 SHRA BECMG BKN015
10:00 am
M
61 °F 6¼ mi+ 1,600 ft 230°   230° 14 kt METAR LFBG 230800Z AUTO 23014KT 9999 OVC016/// //////TCU 16/15 Q1008 TEMPO 4000 SHRA BKN006 OVC015
9:30 am
M
61 °F 6¼ mi+ 1,500 ft 250°   250° 17 kt METAR LFBG 230730Z AUTO 25017KT 9999 SCT006/// SCT010/// OVC015/// //////CB 16/15 Q1007 TEMPO 4000 SHRA BKN006 OVC015
9:00 am
I
61 °F 2⅞ mi 800 ft 250°   250° 19 30 kt METAR LFBG 230700Z AUTO 25019G30KT 4700 -RA BR BKN008/// BKN022/// BKN064/// //////CB 16/15 Q1007 TEMPO 2000 TSRA BKN050TCU BECMG 23015KT
8:30 am
I
61 °F 2⅜ mi 700 ft 240°   240° 19 kt METAR LFBG 230630Z AUTO 24019KT 3800 RA BR VCTS BKN007/// BKN074/// OVC092/// ///CB 16/15 Q1006 TEMPO 23015G25KT 2000 TSRA BKN050TCU
8:00 am
I
63 °F 6¼ mi+ 800 ft 220°   220° 14 kt METAR LFBG 230600Z AUTO 22014KT 9999 -RA BKN008/// OVC022/// //////CB 17/16 Q1006 TEMPO 23015G25KT 2000 TSRA BKN050CB
7:30 am
I
63 °F 2½ mi 700 ft 220°   220° 14 kt METAR LFBG 230530Z AUTO 22014KT 4100 -RADZ BR BKN007/// OVC013/// //////CB 17/16 Q1006 TEMPO 23015G25KT 2000 TSRA BKN050CB
7:00 am
I
63 °F 6¼ mi+ 900 ft 220°   220° 12 kt METAR LFBG 230500Z AUTO 22012KT 9999 OVC009/// ///TCU 17/16 Q1006
6:30 am
M
64 °F 6¼ mi+ 1,000 ft 210°   210° 10 kt METAR LFBG 230430Z AUTO 21010KT 9999 BKN010 OVC014 18/16 Q1006
6:00 am
M
64 °F 6¼ mi+ 1,400 ft 210°   210° 9 kt METAR LFBG 230400Z AUTO 21009KT 9999 BKN014 OVC020 18/16 Q1006
5:30 am
M
64 °F 6¼ mi+ 1,200 ft 220°   220° 10 kt METAR LFBG 230330Z AUTO 22010KT 9999 BKN012 OVC019 18/16 Q1006
5:00 am
M
64 °F 6¼ mi+ 1,300 ft 210°   210° 12 kt METAR LFBG 230300Z AUTO 21012KT 9999 BKN013 OVC019 18/16 Q1007
4:30 am
M
64 °F 6¼ mi+ 1,100 ft 220°   220° 12 kt METAR LFBG 230230Z AUTO 22012KT 9999 OVC011 18/16 Q1007
4:00 am
M
64 °F 6¼ mi+ 1,000 ft 230°   230° 14 kt METAR LFBG 230200Z AUTO 23014KT 9999 BKN010 OVC130 18/17 Q1006
3:30 am
M
64 °F 6¼ mi+ 1,000 ft 260°   260° 12 kt METAR LFBG 230130Z AUTO 26012KT 9999 DZ BKN010/// BKN045/// BKN054/// ///TCU 18/17 Q1005
3:00 am
M
64 °F 6¼ mi+ 1,000 ft 220°   220° 10 kt METAR LFBG 230100Z AUTO 22010KT 9999 BKN010/// ///CB 18/17 Q1006
2:30 am
M
66 °F 6¼ mi+ 1,000 ft 230°   230° 11 kt METAR LFBG 230030Z AUTO 23011KT 9999 BKN010/// OVC016/// ///TCU 19/17 Q1007
2:00 am
V
66 °F 6¼ mi+ - 240°   240° 9 kt METAR LFBG 230000Z AUTO 24009KT 200V260 9999 FEW017/// SCT110/// ///CB 19/17 Q1007
1:30 am
V
66 °F 6¼ mi+ - 220°   220° 7 kt METAR LFBG 222330Z AUTO 22007KT 9999 //////CB 19/17 Q1007
1:00 am
V
66 °F 6¼ mi+ - 220°   220° 10 kt METAR LFBG 222300Z AUTO 22010KT 9999 //////TCU 19/17 Q1007
12:30 am
M
66 °F 4⅜ mi 10,000 ft 250°   250° 18 kt METAR LFBG 222230Z AUTO 25018KT 7000 -TSRA SCT017/// SCT056/// BKN100/// ///CB 19/17 Q1008
12:00 am
M
70 °F 6¼ mi+ 2,000 ft 220°   220° 18 28 kt METAR LFBG 222200Z AUTO 22018G28KT 200V260 9999 VCTS BKN020/// BKN080/// BKN110/// //////CB 21/17 Q1008

May 22, 2022

Time Code Weather Temp. Visibility Clouds Wind METAR/SPECI
11:30 pm
V
72 °F 6¼ mi+ - 220°   220° 14 kt METAR LFBG 222130Z AUTO 22014KT 9999 TS ///CB 22/17 Q1007
11:00 pm
V
73 °F 6¼ mi+ - 220°   220° 7 kt METAR LFBG 222100Z AUTO 22007KT 9999 //////CB 23/18 Q1006
10:30 pm
V
75 °F 6¼ mi+ - 210°   210° 3 kt METAR LFBG 222030Z AUTO 21003KT 9999 TS //////CB 24/19 Q1006
10:00 pm
V
75 °F 6¼ mi+ - 240°   240° 10 kt METAR LFBG 222000Z AUTO 24010KT 9999 //////CB 24/19 Q1006 TEMPO 19020G40KT 3000 TSRAGR
9:30 pm
V
79 °F 6¼ mi+ - 250°   250° 11 kt METAR LFBG 221930Z AUTO 25011KT 9999 VCTS ///CB 26/19 Q1005 TEMPO 19020G40KT 3000 TSRAGR
9:00 pm
V
81 °F 6¼ mi+ - 250°   250° 7 kt METAR LFBG 221900Z AUTO 25007KT 9999 //////CB 27/19 Q1006 TEMPO 19020G40KT 3000 TSRAGR
8:30 pm
V
82 °F 6¼ mi+ - 270°   270° 9 kt METAR LFBG 221830Z AUTO 27009KT CAVOK 28/19 Q1005 TEMPO 19020G40KT 3000 TSRAGR SCT040CB
8:00 pm
V
84 °F 6¼ mi+ - 240°   240° 11 kt METAR LFBG 221800Z AUTO 24011KT CAVOK 29/19 Q1005 TEMPO 19020G40KT 3000 TSRAGR SCT040CB
7:30 pm
V
88 °F 6¼ mi+ - 220°   220° 10 kt METAR LFBG 221730Z AUTO 22010KT CAVOK 31/19 Q1005 TEMPO 19020G40KT 3000 TSRAGR SCT040CB
7:00 pm
V
90 °F 6¼ mi+ - 210°   210° 10 kt METAR LFBG 221700Z AUTO 21010KT CAVOK 32/19 Q1005 TEMPO 19020G40KT 3000 TSRAGR SCT040CB
6:30 pm
V
90 °F 6¼ mi+ - 190°   190° 9 kt METAR LFBG 221630Z AUTO 19009KT CAVOK 32/19 Q1005 TEMPO 19020G40KT 3000 TSRAGR SCT040CB
6:00 pm
V
90 °F 6¼ mi+ - 170°   170° 10 kt METAR LFBG 221600Z AUTO 17010KT CAVOK 32/18 Q1006 TEMPO 19020G40KT 3000 TSRAGR SCT040CB
5:30 pm
V
90 °F 6¼ mi+ - 170°   170° 10 kt METAR LFBG 221530Z AUTO 17010KT CAVOK 32/17 Q1006 TEMPO 19020G40KT 3000 TSRAGR SCT040CB
5:00 pm
V
90 °F 6¼ mi+ - 160°   160° 10 kt METAR LFBG 221500Z AUTO 16010KT 120V200 CAVOK 32/19 Q1006 TEMPO 19020G40KT 3000 TSRAGR SCT040CB
4:30 pm
V
90 °F 6¼ mi+ - 140°   140° 7 kt METAR LFBG 221430Z AUTO 14007KT 110V190 CAVOK 32/19 Q1006 TEMPO 19020G40KT 3000 TSRAGR SCT040CB
4:00 pm
V
91 °F 6¼ mi+ - 140°   140° 8 kt METAR LFBG 221400Z AUTO 14008KT 110V170 9999 FEW003 33/19 Q1006 NOSIG
3:30 pm
V
90 °F 6¼ mi+ - 130°   130° 9 kt METAR LFBG 221330Z AUTO 13009KT 090V160 CAVOK 32/19 Q1007 NOSIG
3:00 pm
V
88 °F 6¼ mi+ - 130°   130° 7 kt METAR LFBG 221300Z AUTO 13007KT 100V160 CAVOK 31/20 Q1008 NOSIG
2:30 pm
V
86 °F 6¼ mi+ 16,000 ft 130°   130° 6 kt METAR LFBG 221230Z AUTO 13006KT 090V170 9999 FEW033 BKN160 30/19 Q1008 NOSIG
2:00 pm
V
82 °F 6¼ mi+ - 090°   090° 6 kt METAR LFBG 221200Z AUTO 09006KT 060V120 CAVOK 28/19 Q1009 NOSIG
1:30 pm
V
81 °F 6¼ mi+ - 110°   110° 4 kt METAR LFBG 221130Z AUTO 11004KT 070V160 9999 ///TCU 27/17 Q1009 BECMG NSC
1:00 pm
V
79 °F 6¼ mi+ - 080°   080° 5 kt METAR LFBG 221100Z AUTO 08005KT 030V130 CAVOK 26/17 Q1010 NOSIG
12:30 pm
V
79 °F 6¼ mi+ - 080°   080° 6 kt METAR LFBG 221030Z AUTO 08006KT 050V120 CAVOK 26/17 Q1010 NOSIG
12:00 pm
V
79 °F 6¼ mi+ 14,000 ft 040°   040° 6 kt METAR LFBG 221000Z AUTO 04006KT 360V080 9999 FEW008/// BKN140/// BKN220/// //////CB 26/16 Q1010 BECMG NSC
11:30 am
V
79 °F 6¼ mi+ - 310°   310° 6 kt METAR LFBG 220930Z AUTO 31006KT 270V350 CAVOK 26/17 Q1011 NOSIG
11:00 am
V
77 °F 6¼ mi+ - 340°   340° 4 kt METAR LFBG 220900Z AUTO 34004KT 290V050 CAVOK 25/16 Q1010 NOSIG
10:30 am
V
73 °F 6¼ mi+ - 330°   330° 5 kt METAR LFBG 220830Z AUTO 33005KT 300V360 CAVOK 23/15 Q1011 NOSIG
10:00 am
V
72 °F 6¼ mi+ - 120°   120° 7 kt METAR LFBG 220800Z AUTO 12007KT 080V210 CAVOK 22/15 Q1011 NOSIG
9:30 am
V
70 °F 6¼ mi+ - 100°   100° 13 kt METAR LFBG 220730Z AUTO 10013KT CAVOK 21/14 Q1010 NOSIG
9:00 am
V
70 °F 6¼ mi+ - 070°   070° 11 kt METAR LFBG 220700Z AUTO 07011KT CAVOK 21/14 Q1010 NOSIG
8:30 am
V
68 °F 6¼ mi+ - 080°   080° 3 kt METAR LFBG 220630Z AUTO 08003KT 050V120 CAVOK 20/14 Q1012 NOSIG
8:00 am
V
68 °F 6¼ mi+ - Var   Var 3 kt METAR LFBG 220600Z AUTO VRB03KT CAVOK 20/13 Q1012 NOSIG
7:30 am
V
68 °F 6¼ mi+ - 040°   040° 9 kt METAR LFBG 220530Z AUTO 04009KT CAVOK 20/13 Q1012 NOSIG
7:00 am
V
68 °F 6¼ mi+ - 040°   040° 5 kt METAR LFBG 220500Z AUTO 04005KT CAVOK 20/13 Q1013 TEMPO 05020G30KT
6:30 am
V
70 °F 6¼ mi+ - Var   Var 2 kt METAR LFBG 220430Z AUTO VRB02KT CAVOK 21/13 Q1013 TEMPO 05020G30KT
6:00 am
V
70 °F 6¼ mi+ - 020°   020° 4 kt METAR LFBG 220400Z AUTO 02004KT CAVOK 21/13 Q1013 TEMPO 05020G30KT
5:30 am
V
70 °F 6¼ mi+ - 010°   010° 3 kt METAR LFBG 220330Z AUTO 01003KT CAVOK 21/13 Q1013 TEMPO 05020G30KT
5:00 am
V
70 °F 6¼ mi+ - 010°   010° 3 kt METAR LFBG 220300Z AUTO 01003KT CAVOK 21/13 Q1013 TEMPO 05020G30KT
4:30 am
V
70 °F 6¼ mi+ - 040°   040° 2 kt METAR LFBG 220230Z AUTO 04002KT CAVOK 21/13 Q1013 TEMPO 05020G30KT
4:00 am
V
72 °F 6¼ mi+ - 020°   020° 5 kt METAR LFBG 220200Z AUTO 02005KT CAVOK 22/13 Q1013 NOSIG
3:30 am
V
72 °F 6¼ mi+ - 030°   030° 5 kt METAR LFBG 220130Z AUTO 03005KT CAVOK 22/13 Q1013 NOSIG
3:00 am
V
72 °F 6¼ mi+ - 360°   360° 5 kt METAR LFBG 220100Z AUTO 36005KT CAVOK 22/13 Q1013 NOSIG
2:30 am
V
73 °F 6¼ mi+ - 020°   020° 6 kt METAR LFBG 220030Z AUTO 02006KT CAVOK 23/14 Q1013 NOSIG
2:00 am
V
75 °F 6¼ mi+ - 020°   020° 5 kt METAR LFBG 220000Z AUTO 02005KT CAVOK 24/14 Q1014 NOSIG
1:30 am
V
75 °F 6¼ mi+ - 010°   010° 3 kt METAR LFBG 212330Z AUTO 01003KT CAVOK 24/15 Q1014 NOSIG
1:00 am
V
75 °F 6¼ mi+ - 040°   040° 3 kt METAR LFBG 212300Z AUTO 04003KT CAVOK 24/15 Q1014 NOSIG
12:30 am
V
77 °F 6¼ mi+ - 060°   060° 6 kt METAR LFBG 212230Z AUTO 06006KT CAVOK 25/15 Q1014 NOSIG
12:00 am
V
77 °F 6¼ mi+ - 070°   070° 6 kt METAR LFBG 212200Z AUTO 07006KT CAVOK 25/15 Q1014 NOSIG

May 21, 2022

Time Code Weather Temp. Visibility Clouds Wind METAR/SPECI
11:30 pm
V
77 °F 6¼ mi+ - 050°   050° 6 kt METAR LFBG 212130Z AUTO 05006KT CAVOK 25/16 Q1015 NOSIG
11:00 pm
V
79 °F 6¼ mi+ - 040°   040° 9 kt METAR LFBG 212100Z AUTO 04009KT CAVOK 26/16 Q1015 NOSIG
10:30 pm
V
81 °F 6¼ mi+ - 020°   020° 8 kt METAR LFBG 212030Z AUTO 02008KT CAVOK 27/17 Q1015 NOSIG
10:00 pm
V
81 °F 6¼ mi+ - 010°   010° 6 kt METAR LFBG 212000Z AUTO 01006KT CAVOK 27/17 Q1015 NOSIG
9:30 pm
V
82 °F 6¼ mi+ - 010°   010° 5 kt METAR LFBG 211930Z AUTO 01005KT CAVOK 28/17 Q1015 NOSIG
9:00 pm
V
84 °F 6¼ mi+ - 030°   030° 4 kt METAR LFBG 211900Z AUTO 03004KT CAVOK 29/17 Q1015 NOSIG
8:30 pm
V
84 °F 6¼ mi+ - 030°   030° 4 kt METAR LFBG 211830Z AUTO 03004KT CAVOK 29/17 Q1015 NOSIG
8:00 pm
V
86 °F 6¼ mi+ - 030°   030° 8 kt METAR LFBG 211800Z AUTO 03008KT CAVOK 30/17 Q1014 NOSIG
7:30 pm
V
86 °F 6¼ mi+ - 080°   080° 4 kt METAR LFBG 211730Z AUTO 08004KT CAVOK 30/16 Q1015 NOSIG
7:00 pm
V
88 °F 6¼ mi+ - Var   Var 3 kt METAR LFBG 211700Z AUTO VRB03KT CAVOK 31/16 Q1015 NOSIG
6:30 pm
V
90 °F 6¼ mi+ - Var   Var 2 kt METAR LFBG 211630Z AUTO VRB02KT CAVOK 32/16 Q1016 NOSIG
6:00 pm
V
88 °F 6¼ mi+ - 120°   120° 7 kt METAR LFBG 211600Z AUTO 12007KT CAVOK 31/16 Q1015 NOSIG
5:30 pm
V
88 °F 6¼ mi+ - 090°   090° 6 kt METAR LFBG 211530Z AUTO 09006KT 060V120 CAVOK 31/17 Q1016 NOSIG
5:00 pm
V
88 °F 6¼ mi+ - Var   Var 4 kt METAR LFBG 211500Z AUTO VRB04KT CAVOK 31/17 Q1016 NOSIG
Older data

Download our app

Easy access to all aviation weather on your mobile phone and tablet.
With many features not available on the website, like offline support and a personal airport list.

We and third parties follow your internet behavior on our website with cookies. If you continue, we assume you agree with our cookie policy. Learn more